sensor_id;sensor_type;location;lat;lon;timestamp;pressure;altitude;pressure_sealevel;temperature;humidity
41044;BME280;51680;49.806;18.774;2023-01-29T00:00:46;98235.72;;;1.29;79.85
41044;BME280;51680;49.806;18.774;2023-01-29T00:03:49;98245.16;;;1.27;80.24
41044;BME280;51680;49.806;18.774;2023-01-29T00:06:51;98246.94;;;1.25;80.24
41044;BME280;51680;49.806;18.774;2023-01-29T00:09:53;98256.41;;;1.21;79.81
41044;BME280;51680;49.806;18.774;2023-01-29T00:12:54;98261.63;;;1.15;79.85
41044;BME280;51680;49.806;18.774;2023-01-29T00:15:58;98253.06;;;1.13;79.91
41044;BME280;51680;49.806;18.774;2023-01-29T00:19:00;98258.25;;;1.10;79.99
41044;BME280;51680;49.806;18.774;2023-01-29T00:22:02;98260.03;;;1.05;80.23
41044;BME280;51680;49.806;18.774;2023-01-29T00:25:05;98258.41;;;1.01;80.27
41044;BME280;51680;49.806;18.774;2023-01-29T00:28:07;98260.09;;;1.02;80.26
41044;BME280;51680;49.806;18.774;2023-01-29T00:31:12;98263.53;;;1.01;80.13
41044;BME280;51680;49.806;18.774;2023-01-29T00:34:14;98269.59;;;0.96;80.16
41044;BME280;51680;49.806;18.774;2023-01-29T00:37:15;98261.94;;;0.91;80.10
41044;BME280;51680;49.806;18.774;2023-01-29T00:40:17;98270.56;;;0.86;80.17
41044;BME280;51680;49.806;18.774;2023-01-29T00:43:19;98276.59;;;0.83;80.35
41044;BME280;51680;49.806;18.774;2023-01-29T00:46:40;98280.06;;;0.77;80.75
41044;BME280;51680;49.806;18.774;2023-01-29T00:49:41;98279.25;;;0.77;80.37
41044;BME280;51680;49.806;18.774;2023-01-29T00:52:43;98282.72;;;0.73;80.49
41044;BME280;51680;49.806;18.774;2023-01-29T00:55:45;98287.88;;;0.68;80.43
41044;BME280;51680;49.806;18.774;2023-01-29T00:58:47;98292.19;;;0.68;80.44
41044;BME280;51680;49.806;18.774;2023-01-29T01:01:50;98294.75;;;0.68;80.53
41044;BME280;51680;49.806;18.774;2023-01-29T01:05:11;98289.63;;;0.68;80.62
41044;BME280;51680;49.806;18.774;2023-01-29T01:08:17;98292.19;;;0.70;80.62
41044;BME280;51680;49.806;18.774;2023-01-29T01:11:36;98295.53;;;0.75;80.79
41044;BME280;51680;49.806;18.774;2023-01-29T01:14:38;98284.31;;;0.83;80.47
41044;BME280;51680;49.806;18.774;2023-01-29T01:17:43;98291.97;;;0.86;80.39
41044;BME280;51680;49.806;18.774;2023-01-29T01:20:45;98298.88;;;0.81;80.67
41044;BME280;51680;49.806;18.774;2023-01-29T01:23:51;98296.28;;;0.84;80.44
41044;BME280;51680;49.806;18.774;2023-01-29T01:26:53;98304.81;;;0.86;80.19
41044;BME280;51680;49.806;18.774;2023-01-29T01:29:54;98296.28;;;0.84;79.87
41044;BME280;51680;49.806;18.774;2023-01-29T01:32:58;98298.84;;;0.84;80.12
41044;BME280;51680;49.806;18.774;2023-01-29T01:36:00;98294.66;;;0.76;80.74
41044;BME280;51680;49.806;18.774;2023-01-29T01:39:02;98294.69;;;0.74;80.29
41044;BME280;51680;49.806;18.774;2023-01-29T01:42:08;98303.25;;;0.73;79.94
41044;BME280;51680;49.806;18.774;2023-01-29T01:45:18;98299.91;;;0.68;79.81
41044;BME280;51680;49.806;18.774;2023-01-29T01:48:23;98308.50;;;0.64;79.98
41044;BME280;51680;49.806;18.774;2023-01-29T01:51:28;98303.38;;;0.63;79.92
41044;BME280;51680;49.806;18.774;2023-01-29T01:54:31;98311.94;;;0.60;79.97
41044;BME280;51680;49.806;18.774;2023-01-29T01:57:34;98309.41;;;0.57;79.54
41044;BME280;51680;49.806;18.774;2023-01-29T02:00:37;98306.91;;;0.51;79.09
41044;BME280;51680;49.806;18.774;2023-01-29T02:03:45;98301.84;;;0.43;79.11
41044;BME280;51680;49.806;18.774;2023-01-29T02:07:08;98301.94;;;0.36;79.33
41044;BME280;51680;49.806;18.774;2023-01-29T02:10:31;98300.22;;;0.35;79.19
41044;BME280;51680;49.806;18.774;2023-01-29T02:13:37;98289.97;;;0.35;79.23
41044;BME280;51680;49.806;18.774;2023-01-29T02:16:38;98289.91;;;0.41;79.14
41044;BME280;51680;49.806;18.774;2023-01-29T02:20:05;98285.53;;;0.49;79.08
41044;BME280;51680;49.806;18.774;2023-01-29T02:23:25;98287.25;;;0.48;78.83
41044;BME280;51680;49.806;18.774;2023-01-29T02:26:44;98277.84;;;0.49;78.80
41044;BME280;51680;49.806;18.774;2023-01-29T02:29:58;98259.00;;;0.50;78.82
41044;BME280;51680;49.806;18.774;2023-01-29T02:33:06;98258.13;;;0.49;78.70
41044;BME280;51680;49.806;18.774;2023-01-29T02:36:20;98264.16;;;0.47;78.02
41044;BME280;51680;49.806;18.774;2023-01-29T02:39:28;98248.72;;;0.50;78.42
41044;BME280;51680;49.806;18.774;2023-01-29T02:42:38;98251.22;;;0.54;78.14
41044;BME280;51680;49.806;18.774;2023-01-29T02:46:05;98245.28;;;0.51;77.74
41044;BME280;51680;49.806;18.774;2023-01-29T02:49:16;98253.88;;;0.47;77.70
41044;BME280;51680;49.806;18.774;2023-01-29T02:52:26;98257.31;;;0.46;77.77
41044;BME280;51680;49.806;18.774;2023-01-29T02:55:38;98251.38;;;0.43;77.29
41044;BME280;51680;49.806;18.774;2023-01-29T02:58:43;98242.84;;;0.39;77.32
41044;BME280;51680;49.806;18.774;2023-01-29T03:01:50;98236.84;;;0.40;77.33
41044;BME280;51680;49.806;18.774;2023-01-29T03:04:58;98248.81;;;0.41;76.96
41044;BME280;51680;49.806;18.774;2023-01-29T03:08:05;98252.28;;;0.37;76.38
41044;BME280;51680;49.806;18.774;2023-01-29T03:11:11;98255.78;;;0.28;76.04
41044;BME280;51680;49.806;18.774;2023-01-29T03:14:17;98259.31;;;0.20;75.73
41044;BME280;51680;49.806;18.774;2023-01-29T03:17:26;98264.47;;;0.17;75.81
41044;BME280;51680;49.806;18.774;2023-01-29T03:20:36;98270.47;;;0.13;75.72
41044;BME280;51680;49.806;18.774;2023-01-29T03:23:40;98275.66;;;0.10;75.35
41044;BME280;51680;49.806;18.774;2023-01-29T03:27:07;98273.91;;;0.10;75.29
41044;BME280;51680;49.806;18.774;2023-01-29T03:30:28;98284.19;;;0.09;75.00
41044;BME280;51680;49.806;18.774;2023-01-29T03:34:12;98274.88;;;0.02;74.40
41044;BME280;51680;49.806;18.774;2023-01-29T03:37:27;98280.88;;;0.01;74.64
41044;BME280;51680;49.806;18.774;2023-01-29T03:40:36;98294.53;;;0.03;74.71
41044;BME280;51680;49.806;18.774;2023-01-29T03:43:50;98281.75;;;-0.03;74.08
41044;BME280;51680;49.806;18.774;2023-01-29T03:46:55;98287.75;;;-0.06;73.86
41044;BME280;51680;49.806;18.774;2023-01-29T03:50:04;98288.63;;;-0.08;73.63
41044;BME280;51680;49.806;18.774;2023-01-29T03:53:12;98287.72;;;-0.03;73.81
41044;BME280;51680;49.806;18.774;2023-01-29T03:56:35;98284.31;;;-0.03;73.16
41044;BME280;51680;49.806;18.774;2023-01-29T03:59:43;98276.63;;;-0.08;73.31
41044;BME280;51680;49.806;18.774;2023-01-29T04:03:11;98284.34;;;-0.08;73.12
41044;BME280;51680;49.806;18.774;2023-01-29T04:06:19;98274.94;;;-0.04;73.14
41044;BME280;51680;49.806;18.774;2023-01-29T04:09:36;98277.44;;;-0.01;73.12
41044;BME280;51680;49.806;18.774;2023-01-29T04:12:44;98276.56;;;0.03;72.87
41044;BME280;51680;49.806;18.774;2023-01-29T04:15:51;98252.56;;;0.07;72.82
41044;BME280;51680;49.806;18.774;2023-01-29T04:19:05;98259.41;;;0.09;72.91
41044;BME280;51680;49.806;18.774;2023-01-29T04:22:17;98243.94;;;0.14;72.64
41044;BME280;51680;49.806;18.774;2023-01-29T04:25:21;98248.25;;;0.12;72.54
41044;BME280;51680;49.806;18.774;2023-01-29T04:28:36;98243.19;;;0.04;71.90
41044;BME280;51680;49.806;18.774;2023-01-29T04:31:48;98255.22;;;0.01;72.21
41044;BME280;51680;49.806;18.774;2023-01-29T04:34:59;98253.47;;;0.03;71.67
41044;BME280;51680;49.806;18.774;2023-01-29T04:38:11;98243.19;;;0.06;71.99
41044;BME280;51680;49.806;18.774;2023-01-29T04:41:43;98231.09;;;0.14;72.16
41044;BME280;51680;49.806;18.774;2023-01-29T04:44:54;98234.44;;;0.23;72.19
41044;BME280;51680;49.806;18.774;2023-01-29T04:48:04;98226.75;;;0.25;71.82
41044;BME280;51680;49.806;18.774;2023-01-29T04:51:14;98233.56;;;0.26;71.75
41044;BME280;51680;49.806;18.774;2023-01-29T04:54:27;98218.09;;;0.32;71.75
41044;BME280;51680;49.806;18.774;2023-01-29T04:57:41;98212.97;;;0.32;71.43
41044;BME280;51680;49.806;18.774;2023-01-29T05:00:47;98209.47;;;0.39;71.83
41044;BME280;51680;49.806;18.774;2023-01-29T05:03:52;98198.28;;;0.43;71.56
41044;BME280;51680;49.806;18.774;2023-01-29T05:06:55;98198.31;;;0.42;71.45
41044;BME280;51680;49.806;18.774;2023-01-29T05:09:58;98183.75;;;0.40;71.18
41044;BME280;51680;49.806;18.774;2023-01-29T05:13:01;98180.50;;;0.28;68.94
41044;BME280;51680;49.806;18.774;2023-01-29T05:16:07;98180.44;;;0.34;71.19
41044;BME280;51680;49.806;18.774;2023-01-29T05:19:13;98180.47;;;0.31;71.25
41044;BME280;51680;49.806;18.774;2023-01-29T05:22:16;98189.13;;;0.24;68.62
41044;BME280;51680;49.806;18.774;2023-01-29T05:25:25;98185.59;;;0.31;71.49
41044;BME280;51680;49.806;18.774;2023-01-29T05:28:27;98200.06;;;0.38;71.44
41044;BME280;51680;49.806;18.774;2023-01-29T05:31:46;98199.22;;;0.39;71.12
41044;BME280;51680;49.806;18.774;2023-01-29T05:34:48;98197.47;;;0.41;71.07
41044;BME280;51680;49.806;18.774;2023-01-29T05:37:50;98198.34;;;0.37;70.79
41044;BME280;51680;49.806;18.774;2023-01-29T05:40:53;98200.09;;;0.37;70.84
41044;BME280;51680;49.806;18.774;2023-01-29T05:43:55;98212.88;;;0.38;70.66
41044;BME280;51680;49.806;18.774;2023-01-29T05:46:56;98216.38;;;0.34;70.21
41044;BME280;51680;49.806;18.774;2023-01-29T05:49:58;98218.06;;;0.35;70.41
41044;BME280;51680;49.806;18.774;2023-01-29T05:53:00;98224.91;;;0.36;70.51
41044;BME280;51680;49.806;18.774;2023-01-29T05:56:04;98213.81;;;0.32;70.12
41044;BME280;51680;49.806;18.774;2023-01-29T05:59:06;98225.78;;;0.35;70.46
41044;BME280;51680;49.806;18.774;2023-01-29T06:02:08;98218.00;;;0.41;70.25
41044;BME280;51680;49.806;18.774;2023-01-29T06:05:10;98212.78;;;0.47;70.11
41044;BME280;51680;49.806;18.774;2023-01-29T06:08:11;98213.63;;;0.51;69.93
41044;BME280;51680;49.806;18.774;2023-01-29T06:11:15;98222.13;;;0.56;70.35
41044;BME280;51680;49.806;18.774;2023-01-29T06:14:17;98222.94;;;0.59;70.09
41044;BME280;51680;49.806;18.774;2023-01-29T06:17:19;98222.03;;;0.63;70.35
41044;BME280;51680;49.806;18.774;2023-01-29T06:20:21;98228.06;;;0.59;69.75
41044;BME280;51680;49.806;18.774;2023-01-29T06:23:23;98236.66;;;0.58;70.02
41044;BME280;51680;49.806;18.774;2023-01-29T06:26:26;98231.44;;;0.64;70.20
41044;BME280;51680;49.806;18.774;2023-01-29T06:29:28;98234.81;;;0.69;69.94
41044;BME280;51680;49.806;18.774;2023-01-29T06:32:29;98233.00;;;0.77;69.69
41044;BME280;51680;49.806;18.774;2023-01-29T06:35:31;98234.63;;;0.84;69.76
41044;BME280;51680;49.806;18.774;2023-01-29T06:38:33;98234.59;;;0.87;69.54
41044;BME280;51680;49.806;18.774;2023-01-29T06:41:36;98239.72;;;0.87;69.41
41044;BME280;51680;49.806;18.774;2023-01-29T06:44:38;98248.25;;;0.89;69.48
41044;BME280;51680;49.806;18.774;2023-01-29T06:47:39;98253.38;;;0.91;69.67
41044;BME280;51680;49.806;18.774;2023-01-29T06:50:41;98246.53;;;0.91;69.22
41044;BME280;51680;49.806;18.774;2023-01-29T06:53:43;98249.91;;;0.96;69.15
41044;BME280;51680;49.806;18.774;2023-01-29T06:56:46;98246.47;;;0.94;68.47
41044;BME280;51680;49.806;18.774;2023-01-29T06:59:48;98241.34;;;0.94;68.98
41044;BME280;51680;49.806;18.774;2023-01-29T07:02:50;98246.38;;;1.02;69.24
41044;BME280;51680;49.806;18.774;2023-01-29T07:05:51;98246.38;;;1.03;68.83
41044;BME280;51680;49.806;18.774;2023-01-29T07:08:54;98236.88;;;1.07;68.85
41044;BME280;51680;49.806;18.774;2023-01-29T07:11:57;98244.56;;;1.11;68.54
41044;BME280;51680;49.806;18.774;2023-01-29T07:14:58;98243.69;;;1.09;68.45
41044;BME280;51680;49.806;18.774;2023-01-29T07:18:02;98248.03;;;1.07;68.67
41044;BME280;51680;49.806;18.774;2023-01-29T07:21:11;98258.31;;;1.07;68.38
41044;BME280;51680;49.806;18.774;2023-01-29T07:24:13;98261.69;;;1.09;68.21
41044;BME280;51680;49.806;18.774;2023-01-29T07:27:16;98265.06;;;1.14;68.42
41044;BME280;51680;49.806;18.774;2023-01-29T07:30:18;98260.81;;;1.10;67.78
41044;BME280;51680;49.806;18.774;2023-01-29T07:33:20;98267.69;;;1.11;68.46
41044;BME280;51680;49.806;18.774;2023-01-29T07:36:22;98263.34;;;1.15;68.54
41044;BME280;51680;49.806;18.774;2023-01-29T07:39:24;98255.63;;;1.15;68.18
41044;BME280;51680;49.806;18.774;2023-01-29T07:42:27;98253.97;;;1.11;68.00
41044;BME280;51680;49.806;18.774;2023-01-29T07:45:29;98253.09;;;1.10;68.03
41044;BME280;51680;49.806;18.774;2023-01-29T07:48:31;98252.19;;;1.16;68.00
41044;BME280;51680;49.806;18.774;2023-01-29T07:51:33;98262.44;;;1.20;67.98
41044;BME280;51680;49.806;18.774;2023-01-29T07:54:35;98260.69;;;1.22;67.71
41044;BME280;51680;49.806;18.774;2023-01-29T07:57:38;98258.06;;;1.25;68.01
41044;BME280;51680;49.806;18.774;2023-01-29T08:00:40;98264.09;;;1.23;67.36
41044;BME280;51680;49.806;18.774;2023-01-29T08:03:42;98268.28;;;1.28;67.78
41044;BME280;51680;49.806;18.774;2023-01-29T08:06:43;98273.41;;;1.31;67.58
41044;BME280;51680;49.806;18.774;2023-01-29T08:09:45;98265.66;;;1.34;67.62
41044;BME280;51680;49.806;18.774;2023-01-29T08:12:52;98255.41;;;1.33;66.52
41044;BME280;51680;49.806;18.774;2023-01-29T08:15:58;98268.25;;;1.31;67.56
41044;BME280;51680;49.806;18.774;2023-01-29T08:19:00;98263.91;;;1.38;67.79
41044;BME280;51680;49.806;18.774;2023-01-29T08:22:02;98269.81;;;1.44;67.76
41044;BME280;51680;49.806;18.774;2023-01-29T08:25:05;98279.91;;;1.56;67.96
41044;BME280;51680;49.806;18.774;2023-01-29T08:28:08;98286.75;;;1.56;67.26
41044;BME280;51680;49.806;18.774;2023-01-29T08:31:14;98291.72;;;1.69;67.26
41044;BME280;51680;49.806;18.774;2023-01-29T08:34:16;98291.56;;;1.80;67.07
41044;BME280;51680;49.806;18.774;2023-01-29T08:37:18;98299.09;;;1.90;67.07
41044;BME280;51680;49.806;18.774;2023-01-29T08:40:20;98291.88;;;2.13;66.67
41044;BME280;51680;49.806;18.774;2023-01-29T08:43:23;98288.69;;;2.49;65.85
41044;BME280;51680;49.806;18.774;2023-01-29T08:46:25;98291.63;;;2.75;65.08
41044;BME280;51680;49.806;18.774;2023-01-29T08:49:27;98285.19;;;2.97;64.42
41044;BME280;51680;49.806;18.774;2023-01-29T08:52:29;98287.19;;;3.24;64.29
41044;BME280;51680;49.806;18.774;2023-01-29T08:55:31;98286.75;;;3.45;63.39
41044;BME280;51680;49.806;18.774;2023-01-29T08:58:34;98282.19;;;3.56;63.38
41044;BME280;51680;49.806;18.774;2023-01-29T09:01:36;98278.53;;;3.66;62.94
41044;BME280;51680;49.806;18.774;2023-01-29T09:04:37;98289.38;;;3.80;62.86
41044;BME280;51680;49.806;18.774;2023-01-29T09:07:39;98298.13;;;3.73;62.56
41044;BME280;51680;49.806;18.774;2023-01-29T09:10:41;98300.97;;;3.63;62.76
41044;BME280;51680;49.806;18.774;2023-01-29T09:13:44;98303.94;;;3.45;62.58
41044;BME280;51680;49.806;18.774;2023-01-29T09:16:46;98296.00;;;3.14;62.78
41044;BME280;51680;49.806;18.774;2023-01-29T09:19:47;98297.88;;;3.06;63.47
41044;BME280;51680;49.806;18.774;2023-01-29T09:22:53;98294.75;;;2.92;59.63
41044;BME280;51680;49.806;18.774;2023-01-29T09:25:56;98294.53;;;3.01;64.05
41044;BME280;51680;49.806;18.774;2023-01-29T09:29:24;98286.56;;;3.13;60.66
41044;BME280;51680;49.806;18.774;2023-01-29T09:32:25;98275.19;;;3.22;63.84
41044;BME280;51680;49.806;18.774;2023-01-29T09:35:29;98274.91;;;2.96;62.57
41044;BME280;51680;49.806;18.774;2023-01-29T09:38:31;98263.84;;;2.89;62.68
41044;BME280;51680;49.806;18.774;2023-01-29T09:41:44;98254.50;;;2.84;61.81
41044;BME280;51680;49.806;18.774;2023-01-29T09:44:57;98248.28;;;2.94;62.56
41044;BME280;51680;49.806;18.774;2023-01-29T09:48:03;98240.50;;;2.95;62.87
41044;BME280;51680;49.806;18.774;2023-01-29T09:51:14;98243.94;;;2.97;62.60
41044;BME280;51680;49.806;18.774;2023-01-29T09:54:22;98240.38;;;3.01;62.67
41044;BME280;51680;49.806;18.774;2023-01-29T09:57:32;98248.94;;;3.05;62.25
41044;BME280;51680;49.806;18.774;2023-01-29T10:00:41;98254.91;;;3.05;62.25
41044;BME280;51680;49.806;18.774;2023-01-29T10:07:41;98251.66;;;2.97;62.22
41044;BME280;51680;49.806;18.774;2023-01-29T10:10:48;98248.25;;;2.95;62.26
41044;BME280;51680;49.806;18.774;2023-01-29T10:13:55;98242.44;;;2.86;62.93
41044;BME280;51680;49.806;18.774;2023-01-29T10:17:18;98233.84;;;2.85;62.46
41044;BME280;51680;49.806;18.774;2023-01-29T10:20:42;98237.34;;;2.83;62.78
41044;BME280;51680;49.806;18.774;2023-01-29T10:23:46;98227.78;;;2.88;63.85
41044;BME280;51680;49.806;18.774;2023-01-29T10:26:51;98225.97;;;2.91;63.69
41044;BME280;51680;49.806;18.774;2023-01-29T10:29:54;98208.59;;;3.02;63.40
41044;BME280;51680;49.806;18.774;2023-01-29T10:33:24;98185.16;;;2.73;59.97
41044;BME280;51680;49.806;18.774;2023-01-29T10:36:32;98202.47;;;2.65;62.86
41044;BME280;51680;49.806;18.774;2023-01-29T10:39:34;98193.63;;;2.78;62.91
41044;BME280;51680;49.806;18.774;2023-01-29T10:42:42;98182.31;;;2.84;62.13
41044;BME280;51680;49.806;18.774;2023-01-29T10:45:53;98177.56;;;3.05;61.75
41044;BME280;51680;49.806;18.774;2023-01-29T10:49:09;98164.13;;;3.28;60.81
41044;BME280;51680;49.806;18.774;2023-01-29T10:52:27;98147.75;;;3.30;61.27
41044;BME280;51680;49.806;18.774;2023-01-29T10:55:42;98147.47;;;3.42;60.83
41044;BME280;51680;49.806;18.774;2023-01-29T10:58:49;98138.19;;;3.35;60.74
41044;BME280;51680;49.806;18.774;2023-01-29T11:01:56;98144.56;;;3.19;60.87
41044;BME280;51680;49.806;18.774;2023-01-29T11:04:59;98137.53;;;2.89;61.03
41044;BME280;51680;49.806;18.774;2023-01-29T11:08:04;98122.81;;;2.55;62.12
41044;BME280;51680;49.806;18.774;2023-01-29T11:11:12;98123.47;;;2.64;63.06
41044;BME280;51680;49.806;18.774;2023-01-29T11:14:18;98119.16;;;2.65;63.23
41044;BME280;51680;49.806;18.774;2023-01-29T11:17:23;98114.88;;;2.65;62.95
41044;BME280;51680;49.806;18.774;2023-01-29T11:20:28;98100.91;;;2.75;62.42
41044;BME280;51680;49.806;18.774;2023-01-29T11:23:32;98110.22;;;2.81;62.92
41044;BME280;51680;49.806;18.774;2023-01-29T11:26:37;98100.66;;;2.86;62.13
41044;BME280;51680;49.806;18.774;2023-01-29T11:29:42;98094.59;;;2.88;61.96
41044;BME280;51680;49.806;18.774;2023-01-29T11:32:49;98081.56;;;2.94;61.64
41044;BME280;51680;49.806;18.774;2023-01-29T11:35:52;98078.56;;;2.76;60.38
41044;BME280;51680;49.806;18.774;2023-01-29T11:39:09;98079.56;;;2.69;60.26
41044;BME280;51680;49.806;18.774;2023-01-29T11:42:18;98077.72;;;2.74;60.63
41044;BME280;51680;49.806;18.774;2023-01-29T11:45:24;98063.25;;;2.68;60.52
41044;BME280;51680;49.806;18.774;2023-01-29T11:48:32;98060.06;;;2.57;60.38
41044;BME280;51680;49.806;18.774;2023-01-29T11:51:37;98058.13;;;2.68;60.71
41044;BME280;51680;49.806;18.774;2023-01-29T11:55:02;98047.44;;;2.83;60.95
41044;BME280;51680;49.806;18.774;2023-01-29T11:58:11;98037.84;;;2.90;58.43
41044;BME280;51680;49.806;18.774;2023-01-29T12:01:17;98034.09;;;3.01;59.65
41044;BME280;51680;49.806;18.774;2023-01-29T12:04:25;98043.69;;;2.96;59.75
41044;BME280;51680;49.806;18.774;2023-01-29T12:07:29;98045.47;;;2.94;59.71
41044;BME280;51680;49.806;18.774;2023-01-29T12:10:33;98049.03;;;2.87;60.44
41044;BME280;51680;49.806;18.774;2023-01-29T12:13:35;98048.91;;;2.95;60.54
41044;BME280;51680;49.806;18.774;2023-01-29T12:16:43;98048.84;;;2.96;60.43
41044;BME280;51680;49.806;18.774;2023-01-29T12:19:55;98044.72;;;2.89;60.37
41044;BME280;51680;49.806;18.774;2023-01-29T12:23:13;98043.03;;;2.88;59.52
41044;BME280;51680;49.806;18.774;2023-01-29T12:26:26;98039.44;;;2.94;60.17
41044;BME280;51680;49.806;18.774;2023-01-29T12:29:36;98039.00;;;2.77;59.86
41044;BME280;51680;49.806;18.774;2023-01-29T12:32:43;98045.06;;;2.76;60.12
41044;BME280;51680;49.806;18.774;2023-01-29T12:35:53;98037.06;;;2.86;60.18
41044;BME280;51680;49.806;18.774;2023-01-29T12:38:58;98041.81;;;3.03;60.30
41044;BME280;51680;49.806;18.774;2023-01-29T12:42:02;98039.41;;;2.95;59.87
41044;BME280;51680;49.806;18.774;2023-01-29T12:45:07;98026.38;;;3.01;59.68
41044;BME280;51680;49.806;18.774;2023-01-29T12:48:13;98025.53;;;3.01;58.39
41044;BME280;51680;49.806;18.774;2023-01-29T12:51:19;98031.41;;;3.07;59.69
41044;BME280;51680;49.806;18.774;2023-01-29T12:54:31;98022.69;;;3.11;58.50
41044;BME280;51680;49.806;18.774;2023-01-29T12:57:40;98016.75;;;3.08;58.84
41044;BME280;51680;49.806;18.774;2023-01-29T13:00:45;98014.28;;;3.05;58.86
41044;BME280;51680;49.806;18.774;2023-01-29T13:03:52;98019.50;;;3.02;58.66
41044;BME280;51680;49.806;18.774;2023-01-29T13:07:05;98012.69;;;2.99;58.30
41044;BME280;51680;49.806;18.774;2023-01-29T13:10:14;98008.97;;;3.11;59.08
41044;BME280;51680;49.806;18.774;2023-01-29T13:13:25;98008.56;;;3.26;58.83
41044;BME280;51680;49.806;18.774;2023-01-29T13:16:32;98008.38;;;3.33;58.87
41044;BME280;51680;49.806;18.774;2023-01-29T13:19:40;98010.22;;;3.28;57.88
41044;BME280;51680;49.806;18.774;2023-01-29T13:22:43;98015.63;;;3.18;58.52
41044;BME280;51680;49.806;18.774;2023-01-29T13:25:50;98010.56;;;3.15;58.25
41044;BME280;51680;49.806;18.774;2023-01-29T13:28:53;97998.50;;;2.82;57.96
41044;BME280;51680;49.806;18.774;2023-01-29T13:31:56;97999.44;;;2.79;58.77
41044;BME280;51680;49.806;18.774;2023-01-29T13:35:01;97997.66;;;2.81;58.63
41044;BME280;51680;49.806;18.774;2023-01-29T13:38:05;97997.22;;;2.64;58.48
41044;BME280;51680;49.806;18.774;2023-01-29T13:41:30;97993.94;;;2.56;56.25
41044;BME280;51680;49.806;18.774;2023-01-29T13:44:34;97989.53;;;2.61;59.13
41044;BME280;51680;49.806;18.774;2023-01-29T13:47:38;97989.94;;;2.43;59.06
41044;BME280;51680;49.806;18.774;2023-01-29T13:50:41;97990.88;;;2.41;59.49
41044;BME280;51680;49.806;18.774;2023-01-29T13:53:51;97992.56;;;2.42;58.93
41044;BME280;51680;49.806;18.774;2023-01-29T13:57:00;97995.06;;;2.46;58.95
41044;BME280;51680;49.806;18.774;2023-01-29T14:00:03;97989.91;;;2.46;59.13
41044;BME280;51680;49.806;18.774;2023-01-29T14:06:50;97991.00;;;2.35;59.32
41044;BME280;51680;49.806;18.774;2023-01-29T14:10:13;97990.09;;;2.37;58.07
41044;BME280;51680;49.806;18.774;2023-01-29T14:13:26;97985.91;;;2.32;57.69
41044;BME280;51680;49.806;18.774;2023-01-29T14:16:34;97976.81;;;2.17;59.44
41044;BME280;51680;49.806;18.774;2023-01-29T14:19:36;97974.13;;;2.22;59.96
41044;BME280;51680;49.806;18.774;2023-01-29T14:22:39;97976.88;;;2.14;59.87
41044;BME280;51680;49.806;18.774;2023-01-29T14:25:41;97974.41;;;2.10;59.96
41044;BME280;51680;49.806;18.774;2023-01-29T14:28:52;97976.22;;;2.06;58.89
41044;BME280;51680;49.806;18.774;2023-01-29T14:31:57;97971.16;;;2.00;59.63
41044;BME280;51680;49.806;18.774;2023-01-29T14:35:01;97954.47;;;1.80;60.27
41044;BME280;51680;49.806;18.774;2023-01-29T14:38:05;97966.09;;;1.55;60.60
41044;BME280;51680;49.806;18.774;2023-01-29T14:41:22;97957.94;;;1.33;59.78
41044;BME280;51680;49.806;18.774;2023-01-29T14:44:56;97964.13;;;1.25;60.17
41044;BME280;51680;49.806;18.774;2023-01-29T14:48:03;97965.13;;;1.16;61.30
41044;BME280;51680;49.806;18.774;2023-01-29T14:51:18;97964.38;;;1.11;61.50
41044;BME280;51680;49.806;18.774;2023-01-29T14:54:24;97962.84;;;1.01;61.42
41044;BME280;51680;49.806;18.774;2023-01-29T14:57:30;97973.31;;;0.89;61.81
41044;BME280;51680;49.806;18.774;2023-01-29T15:00:36;97974.25;;;0.83;61.91
41044;BME280;51680;49.806;18.774;2023-01-29T15:03:42;97971.00;;;0.74;62.41
41044;BME280;51680;49.806;18.774;2023-01-29T15:06:48;97981.28;;;0.74;62.41
41044;BME280;51680;49.806;18.774;2023-01-29T15:09:53;97977.72;;;0.81;62.42
41044;BME280;51680;49.806;18.774;2023-01-29T15:13:02;97977.72;;;0.82;61.98
41044;BME280;51680;49.806;18.774;2023-01-29T15:16:09;97978.72;;;0.74;62.49
41044;BME280;51680;49.806;18.774;2023-01-29T15:19:18;97971.16;;;0.65;63.13
41044;BME280;51680;49.806;18.774;2023-01-29T15:22:23;97963.47;;;0.63;63.33
41044;BME280;51680;49.806;18.774;2023-01-29T15:25:26;97964.31;;;0.64;63.25
41044;BME280;51680;49.806;18.774;2023-01-29T15:28:34;97960.13;;;0.58;63.29
41044;BME280;51680;49.806;18.774;2023-01-29T15:31:39;97958.44;;;0.57;63.08
41044;BME280;51680;49.806;18.774;2023-01-29T15:34:42;97952.59;;;0.48;63.37
41044;BME280;51680;49.806;18.774;2023-01-29T15:37:57;97952.69;;;0.42;63.43
41044;BME280;51680;49.806;18.774;2023-01-29T15:41:01;97951.13;;;0.32;64.37
41044;BME280;51680;49.806;18.774;2023-01-29T15:44:07;97946.88;;;0.29;64.06
41044;BME280;51680;49.806;18.774;2023-01-29T15:47:14;97960.63;;;0.27;64.40
41044;BME280;51680;49.806;18.774;2023-01-29T15:50:16;97953.72;;;0.30;64.17
41044;BME280;51680;49.806;18.774;2023-01-29T15:53:20;97942.50;;;0.36;64.26
41044;BME280;51680;49.806;18.774;2023-01-29T15:56:27;97930.72;;;0.24;64.18
41044;BME280;51680;49.806;18.774;2023-01-29T15:59:33;97929.25;;;0.07;64.51
41044;BME280;51680;49.806;18.774;2023-01-29T16:02:39;97936.88;;;0.11;64.97
41044;BME280;51680;49.806;18.774;2023-01-29T16:05:41;97935.25;;;0.08;64.75
41044;BME280;51680;49.806;18.774;2023-01-29T16:08:45;97936.22;;;-0.01;64.60
41044;BME280;51680;49.806;18.774;2023-01-29T16:11:49;97934.38;;;0.10;65.14
41044;BME280;51680;49.806;18.774;2023-01-29T16:14:52;97926.56;;;0.17;64.71
41044;BME280;51680;49.806;18.774;2023-01-29T16:17:56;97928.22;;;0.20;64.69
41044;BME280;51680;49.806;18.774;2023-01-29T16:21:01;97920.53;;;0.18;64.60
41044;BME280;51680;49.806;18.774;2023-01-29T16:24:07;97919.88;;;0.06;65.13
41044;BME280;51680;49.806;18.774;2023-01-29T16:27:13;97928.47;;;0.03;64.90
41044;BME280;51680;49.806;18.774;2023-01-29T16:30:15;97927.59;;;0.03;65.34
41044;BME280;51680;49.806;18.774;2023-01-29T16:33:19;97932.75;;;0.03;65.43
41044;BME280;51680;49.806;18.774;2023-01-29T16:36:23;97942.91;;;0.09;65.39